Time;durP1;ratioP1;P1;durP2;ratioP2;P2;SDS_P1;SDS_P2;PMS_P1;PMS_P2;Temp;Humidity;BMP_temperature;BMP_pressure;BME280_temperature;BME280_humidity;BME280_pressure;Samples;Min_cycle;Max_cycle;Signal;HPM_P1;HPM_P2
2023/08/04 00:01:00;;;;;;;3.65;3.10;;;17.20;80.10;;;;;;5010992;28;20631;-47
2023/08/04 00:03:29;;;;;;;5.03;3.30;;;17.30;80.00;;;;;;5012197;28;20546;-48
2023/08/04 00:06:00;;;;;;;6.35;3.70;;;17.30;80.00;;;;;;5013564;28;20037;-52
2023/08/04 00:08:28;;;;;;;7.88;3.55;;;17.30;79.80;;;;;;5011322;28;20044;-47
2023/08/04 00:10:57;;;;;;;10.13;5.18;;;17.30;79.80;;;;;;5011441;28;20044;-47
2023/08/04 00:13:25;;;;;;;6.55;4.13;;;17.30;79.80;;;;;;5011779;28;20034;-48
2023/08/04 00:15:57;;;;;;;7.70;4.05;;;17.30;80.00;;;;;;5011772;28;20057;-49
2023/08/04 00:18:26;;;;;;;5.35;3.60;;;17.30;80.30;;;;;;5009623;28;20050;-49
2023/08/04 00:20:57;;;;;;;4.57;3.50;;;17.40;80.40;;;;;;5011400;28;20053;-48
2023/08/04 00:23:25;;;;;;;6.60;3.17;;;17.40;80.50;;;;;;5012203;28;20084;-47
2023/08/04 00:25:52;;;;;;;6.18;3.35;;;17.40;80.70;;;;;;5011118;28;20536;-50
2023/08/04 00:28:19;;;;;;;4.90;3.60;;;17.40;80.70;;;;;;5010356;28;20096;-49
2023/08/04 00:30:51;;;;;;;7.53;3.75;;;17.40;80.60;;;;;;5010190;28;20423;-47
2023/08/04 00:33:20;;;;;;;9.70;3.80;;;17.50;80.50;;;;;;5011998;28;20053;-48
2023/08/04 00:35:50;;;;;;;;;;;17.50;80.30;;;;;;5008427;28;20045;-49
2023/08/04 00:38:19;;;;;;;8.32;4.72;;;17.60;80.30;;;;;;5010565;28;19925;-48
2023/08/04 00:40:45;;;;;;;5.68;3.72;;;17.60;80.30;;;;;;5010125;28;20473;-51
2023/08/04 00:43:12;;;;;;;6.88;3.97;;;17.60;80.30;;;;;;5009830;28;20096;-49
2023/08/04 00:45:41;;;;;;;8.95;4.78;;;17.60;80.40;;;;;;5010144;28;20053;-48
2023/08/04 00:48:11;;;;;;;8.02;3.75;;;17.70;80.50;;;;;;5011624;28;20510;-49
2023/08/04 00:50:40;;;;;;;6.03;3.80;;;17.70;80.40;;;;;;5009546;28;20523;-51
2023/08/04 00:53:14;;;;;;;5.60;3.70;;;17.70;80.60;;;;;;5009650;28;20069;-47
2023/08/04 00:55:43;;;;;;;4.47;3.72;;;17.70;80.40;;;;;;5008954;28;20042;-49
2023/08/04 00:58:11;;;;;;;6.32;3.47;;;17.80;80.40;;;;;;5009947;28;20116;-50
2023/08/04 01:00:39;;;;;;;9.07;4.13;;;17.80;80.50;;;;;;5004067;28;20046;-49
2023/08/04 01:03:11;;;;;;;5.75;3.90;;;17.80;80.60;;;;;;5011426;28;20053;-51
2023/08/04 01:05:50;;;;;;;9.63;3.88;;;17.80;80.70;;;;;;5013645;28;20407;-49
2023/08/04 01:08:29;;;;;;;7.13;4.32;;;17.90;80.20;;;;;;5006650;28;20038;-48
2023/08/04 01:11:06;;;;;;;6.32;4.20;;;17.90;80.30;;;;;;5008812;28;20440;-48
2023/08/04 01:13:39;;;;;;;7.25;4.40;;;17.90;80.40;;;;;;5009423;28;20054;-50
2023/08/04 01:16:09;;;;;;;10.93;4.40;;;18.00;80.20;;;;;;5003754;28;20065;-48
2023/08/04 01:18:39;;;;;;;5.25;4.10;;;18.00;80.40;;;;;;5009883;28;20147;-51
2023/08/04 01:21:08;;;;;;;3.85;3.28;;;18.00;80.10;;;;;;5006907;28;20619;-48
2023/08/04 01:23:35;;;;;;;6.35;3.67;;;17.90;80.00;;;;;;5011121;28;20049;-48
2023/08/04 01:26:06;;;;;;;6.93;4.68;;;18.00;80.00;;;;;;5009751;28;20042;-50
2023/08/04 01:28:37;;;;;;;8.88;4.55;;;18.00;79.90;;;;;;5003036;28;20137;-48
2023/08/04 01:31:05;;;;;;;8.13;4.18;;;18.00;79.80;;;;;;5007171;28;20041;-48
2023/08/04 01:33:32;;;;;;;7.88;4.22;;;18.00;79.80;;;;;;5009815;28;20080;-48
2023/08/04 01:36:02;;;;;;;8.10;4.00;;;18.00;79.70;;;;;;5010793;28;20551;-49
2023/08/04 01:38:28;;;;;;;11.43;4.95;;;18.00;79.50;;;;;;5008915;28;20035;-55
2023/08/04 01:40:55;;;;;;;7.07;3.75;;;18.00;79.50;;;;;;5008547;28;20116;-48
2023/08/04 01:43:23;;;;;;;8.07;4.78;;;18.00;79.40;;;;;;5011148;28;20540;-48
2023/08/04 01:45:49;;;;;;;12.98;5.13;;;18.00;79.40;;;;;;5010493;28;20073;-48
2023/08/04 01:48:18;;;;;;;10.00;4.65;;;18.00;79.60;;;;;;5006489;28;20136;-49
2023/08/04 01:50:47;;;;;;;7.97;4.40;;;18.00;79.50;;;;;;5008055;28;20128;-51
2023/08/04 01:53:19;;;;;;;9.05;4.47;;;18.00;79.40;;;;;;5010354;28;20066;-49
2023/08/04 01:55:48;;;;;;;12.13;4.53;;;18.00;79.50;;;;;;5009297;28;20412;-51
2023/08/04 01:58:22;;;;;;;9.55;4.25;;;18.00;79.30;;;;;;5009119;28;20125;-49
2023/08/04 02:00:51;;;;;;;9.77;4.93;;;18.00;79.30;;;;;;5008364;28;20642;-49
2023/08/04 02:03:17;;;;;;;6.60;4.50;;;18.00;79.20;;;;;;5009081;28;20065;-51
2023/08/04 02:05:53;;;;;;;9.05;4.30;;;18.00;79.10;;;;;;5013341;28;20042;-49
2023/08/04 02:08:20;;;;;;;8.05;4.35;;;18.00;79.20;;;;;;5006522;28;20112;-51
2023/08/04 02:10:52;;;;;;;8.90;5.50;;;18.00;79.10;;;;;;5009155;28;20108;-50
2023/08/04 02:13:21;;;;;;;10.32;4.57;;;18.00;79.20;;;;;;5009855;28;20038;-48
2023/08/04 02:15:50;;;;;;;7.45;5.25;;;18.00;79.30;;;;;;5002812;28;20042;-52
2023/08/04 02:18:16;;;;;;;10.50;4.93;;;17.90;79.30;;;;;;5008998;28;20050;-49
2023/08/04 02:20:43;;;;;;;9.98;4.82;;;17.90;79.20;;;;;;5007718;28;20065;-49
2023/08/04 02:23:10;;;;;;;11.25;5.60;;;17.90;79.10;;;;;;5009945;28;20080;-48
2023/08/04 02:25:37;;;;;;;7.93;4.53;;;17.90;79.20;;;;;;5008173;28;20050;-50
2023/08/04 02:28:09;;;;;;;8.77;5.47;;;17.90;79.20;;;;;;5008152;28;20034;-55
2023/08/04 02:30:36;;;;;;;9.50;5.30;;;17.90;79.40;;;;;;5008005;28;20042;-48
2023/08/04 02:33:07;;;;;;;9.43;5.28;;;17.90;79.40;;;;;;5022947;28;20081;-50
2023/08/04 02:35:38;;;;;;;12.38;5.72;;;17.90;79.40;;;;;;5008694;28;20555;-49
2023/08/04 02:38:05;;;;;;;19.08;7.20;;;17.90;79.20;;;;;;5004349;28;20041;-49
2023/08/04 02:40:39;;;;;;;11.40;6.13;;;17.80;79.20;;;;;;5007565;28;20046;-47
2023/08/04 02:43:06;;;;;;;8.23;4.40;;;17.90;79.50;;;;;;5001549;28;20116;-48
2023/08/04 02:45:32;;;;;;;9.98;5.38;;;17.80;79.50;;;;;;5009302;28;20057;-53
2023/08/04 02:48:04;;;;;;;10.63;5.97;;;17.80;79.50;;;;;;5009179;28;20651;-48
2023/08/04 02:50:33;;;;;;;8.05;5.75;;;17.80;79.50;;;;;;5008991;28;20045;-49
2023/08/04 02:52:59;;;;;;;9.95;5.50;;;17.90;79.70;;;;;;5008812;28;20045;-49
2023/08/04 02:55:31;;;;;;;11.85;5.47;;;17.80;79.70;;;;;;5005461;28;20052;-48
2023/08/04 02:57:58;;;;;;;10.82;5.57;;;17.80;79.70;;;;;;5008744;28;20120;-51
2023/08/04 03:00:30;;;;;;;9.02;5.25;;;17.80;79.60;;;;;;5007431;28;20100;-49
2023/08/04 03:03:00;;;;;;;9.88;5.30;;;17.80;79.50;;;;;;5008912;28;20049;-47
2023/08/04 03:05:26;;;;;;;7.43;4.82;;;17.80;79.30;;;;;;5012389;28;20693;-51
2023/08/04 03:07:59;;;;;;;8.95;6.15;;;17.80;79.20;;;;;;5011520;28;20515;-48
2023/08/04 03:10:25;;;;;;;12.77;5.20;;;17.70;79.20;;;;;;5008994;28;20092;-48
2023/08/04 03:12:52;;;;;;;11.18;5.72;;;17.70;79.10;;;;;;5008801;28;20070;-48
2023/08/04 03:15:19;;;;;;;11.07;5.57;;;17.70;79.30;;;;;;5009380;28;20038;-49
2023/08/04 03:17:51;;;;;;;6.85;5.07;;;17.70;79.40;;;;;;5007733;28;20048;-51
2023/08/04 03:20:24;;;;;;;8.77;5.45;;;17.70;79.40;;;;;;5001305;28;20120;-48
2023/08/04 03:22:51;;;;;;;9.18;5.80;;;17.60;79.60;;;;;;5008640;28;20105;-48
2023/08/04 03:25:22;;;;;;;10.27;5.32;;;17.60;79.60;;;;;;5009165;28;20121;-50
2023/08/04 03:27:49;;;;;;;10.10;5.13;;;17.60;79.90;;;;;;5007675;28;20133;-47
2023/08/04 03:30:20;;;;;;;8.88;5.50;;;17.60;80.10;;;;;;5007164;28;20416;-48
2023/08/04 03:32:49;;;;;;;8.63;4.90;;;17.60;80.20;;;;;;4997718;28;20552;-47
2023/08/04 03:35:22;;;;;;;11.25;5.63;;;17.60;80.30;;;;;;5001835;28;20041;-48
2023/08/04 03:37:50;;;;;;;8.60;5.07;;;17.60;80.30;;;;;;5007785;28;20040;-48
2023/08/04 03:40:17;;;;;;;6.40;4.90;;;17.60;80.20;;;;;;5008694;28;20081;-50
2023/08/04 03:42:47;;;;;;;10.38;4.85;;;17.70;80.40;;;;;;5008505;28;20119;-52
2023/08/04 03:45:16;;;;;;;7.18;4.97;;;17.70;80.40;;;;;;5003825;28;20045;-52
2023/08/04 03:47:45;;;;;;;11.98;5.22;;;17.60;80.40;;;;;;5008818;28;20514;-50
2023/08/04 03:50:12;;;;;;;7.15;5.07;;;17.70;80.50;;;;;;5009392;28;20475;-48
2023/08/04 03:52:39;;;;;;;9.20;4.95;;;17.70;80.30;;;;;;5009067;28;20117;-53
2023/08/04 03:55:06;;;;;;;8.52;5.43;;;17.70;80.20;;;;;;5012232;28;20042;-50
2023/08/04 03:57:35;;;;;;;12.30;5.45;;;17.70;80.20;;;;;;5009102;28;20061;-51
2023/08/04 04:00:09;;;;;;;10.27;5.10;;;17.70;80.20;;;;;;5002802;28;20642;-52
2023/08/04 04:02:47;;;;;;;10.98;6.38;;;17.70;80.40;;;;;;5003502;28;20068;-48
2023/08/04 04:05:17;;;;;;;7.53;5.50;;;17.70;80.40;;;;;;5003303;28;20125;-50
2023/08/04 04:07:44;;;;;;;9.73;5.20;;;17.70;80.30;;;;;;5005463;28;20053;-53
2023/08/04 04:10:11;;;;;;;10.55;5.57;;;17.70;80.40;;;;;;5043174;23;20073;-50
2023/08/04 04:12:37;;;;;;;10.65;5.10;;;17.70;80.50;;;;;;5025257;28;20046;-50
2023/08/04 04:15:05;;;;;;;8.43;5.50;;;17.70;80.50;;;;;;5031956;28;20077;-54
2023/08/04 04:17:35;;;;;;;6.18;5.25;;;17.80;80.70;;;;;;5024009;28;20100;-53
2023/08/04 04:20:03;;;;;;;6.85;4.97;;;17.80;80.30;;;;;;5016507;28;20083;-51
2023/08/04 04:22:30;;;;;;;7.95;5.47;;;17.80;80.20;;;;;;5010593;28;20056;-51
2023/08/04 04:24:59;;;;;;;9.02;5.47;;;17.80;80.20;;;;;;5012306;28;20073;-55
2023/08/04 04:27:30;;;;;;;7.68;5.25;;;17.80;80.40;;;;;;5014446;28;20049;-49
2023/08/04 04:29:59;;;;;;;8.98;5.18;;;17.80;80.40;;;;;;5010885;28;20077;-50
2023/08/04 04:32:26;;;;;;;9.95;5.20;;;17.80;80.40;;;;;;5012035;28;20069;-49
2023/08/04 04:34:55;;;;;;;11.65;5.55;;;17.80;80.20;;;;;;5012584;28;20100;-51
2023/08/04 04:37:22;;;;;;;6.53;4.97;;;17.80;80.20;;;;;;5010919;28;20129;-51
2023/08/04 04:39:48;;;;;;;9.43;5.18;;;17.80;80.30;;;;;;5012037;28;20096;-51
2023/08/04 04:42:16;;;;;;;9.50;5.35;;;17.80;80.40;;;;;;5011699;28;20049;-50
2023/08/04 04:44:43;;;;;;;8.43;5.85;;;17.80;80.30;;;;;;5012620;28;20034;-52
2023/08/04 04:47:10;;;;;;;9.95;5.13;;;17.80;80.30;;;;;;5010733;28;20077;-53
2023/08/04 04:49:37;;;;;;;8.38;5.60;;;17.80;80.60;;;;;;5011957;28;20053;-53
2023/08/04 04:52:06;;;;;;;10.30;6.38;;;17.80;80.60;;;;;;5010690;28;20042;-53
2023/08/04 04:54:33;;;;;;;10.70;5.85;;;17.90;80.70;;;;;;5012661;28;20577;-52
2023/08/04 04:57:02;;;;;;;8.50;5.43;;;17.90;80.80;;;;;;5011323;28;20058;-53
2023/08/04 04:59:28;;;;;;;9.32;5.70;;;17.90;80.60;;;;;;5025325;28;20124;-55
2023/08/04 05:01:59;;;;;;;10.75;6.18;;;17.90;80.40;;;;;;5009999;28;20081;-50
2023/08/04 05:04:26;;;;;;;9.70;6.40;;;17.90;80.60;;;;;;5011032;28;20147;-50
2023/08/04 05:06:53;;;;;;;9.23;5.78;;;18.00;80.60;;;;;;5010404;28;20131;-53
2023/08/04 05:09:22;;;;;;;8.40;6.20;;;17.90;80.40;;;;;;5011314;28;20042;-52
2023/08/04 05:11:48;;;;;;;9.82;6.35;;;17.90;80.60;;;;;;5010815;28;20128;-49
2023/08/04 05:14:25;;;;;;;10.60;6.07;;;18.00;80.40;;;;;;5012491;28;20036;-50
2023/08/04 05:16:53;;;;;;;9.13;5.60;;;18.00;80.20;;;;;;5010481;28;20080;-52
2023/08/04 05:19:31;;;;;;;10.55;5.45;;;18.00;80.20;;;;;;5010234;28;20069;-55
2023/08/04 05:21:58;;;;;;;10.23;5.85;;;18.00;80.20;;;;;;5010601;28;20057;-53
2023/08/04 05:24:26;;;;;;;9.90;5.93;;;18.10;80.30;;;;;;5010079;28;20385;-51
2023/08/04 05:26:55;;;;;;;7.70;5.03;;;18.10;80.30;;;;;;5012624;28;20125;-50
2023/08/04 05:29:22;;;;;;;7.88;5.45;;;18.10;80.30;;;;;;5005860;28;20074;-53
2023/08/04 05:31:49;;;;;;;7.25;5.43;;;18.10;80.40;;;;;;5010697;28;20419;-51
2023/08/04 05:34:16;;;;;;;11.20;5.45;;;18.10;80.50;;;;;;5011597;28;20034;-50
2023/08/04 05:36:42;;;;;;;8.38;4.95;;;18.10;80.50;;;;;;5009414;28;20089;-55
2023/08/04 05:39:09;;;;;;;6.68;5.70;;;18.20;80.30;;;;;;5011246;28;20080;-51
2023/08/04 05:41:36;;;;;;;14.77;6.90;;;18.20;80.20;;;;;;5009813;28;20123;-51
2023/08/04 05:44:02;;;;;;;7.70;5.88;;;18.20;80.10;;;;;;5008502;28;20050;-50
2023/08/04 05:46:30;;;;;;;8.68;5.78;;;18.20;80.00;;;;;;5006446;28;20046;-53
2023/08/04 05:48:57;;;;;;;9.80;5.80;;;18.30;79.80;;;;;;4996698;28;20057;-57
2023/08/04 05:51:24;;;;;;;10.43;5.85;;;18.20;79.80;;;;;;5007435;28;20398;-52
2023/08/04 05:53:50;;;;;;;9.95;5.15;;;18.20;80.00;;;;;;5009401;28;20117;-51
2023/08/04 05:56:17;;;;;;;7.50;5.25;;;18.30;80.10;;;;;;5006360;28;20069;-55
2023/08/04 05:58:44;;;;;;;9.45;6.13;;;18.30;80.00;;;;;;5007596;28;20056;-54
2023/08/04 06:01:10;;;;;;;8.50;6.15;;;18.30;80.00;;;;;;5008967;28;20130;-52
2023/08/04 06:03:37;;;;;;;11.88;7.13;;;18.30;79.90;;;;;;5006428;28;20045;-51
2023/08/04 06:06:04;;;;;;;17.83;7.45;;;18.40;80.00;;;;;;5005925;28;20038;-57
2023/08/04 06:08:30;;;;;;;10.02;6.43;;;18.40;79.70;;;;;;5007638;28;20116;-56
2023/08/04 06:10:58;;;;;;;10.63;6.00;;;18.40;79.80;;;;;;5006583;28;20096;-52
2023/08/04 06:13:25;;;;;;;8.90;6.18;;;18.40;79.60;;;;;;5006954;28;20046;-53
2023/08/04 06:15:51;;;;;;;9.80;6.40;;;18.40;79.80;;;;;;5010066;28;20116;-54
2023/08/04 06:18:18;;;;;;;6.65;5.25;;;18.50;79.80;;;;;;5009066;28;20053;-51
2023/08/04 06:20:47;;;;;;;9.30;6.63;;;18.50;79.60;;;;;;5008062;28;20064;-53
2023/08/04 06:23:14;;;;;;;9.40;6.35;;;18.50;79.50;;;;;;5005687;28;20108;-52
2023/08/04 06:25:40;;;;;;;12.50;5.40;;;18.50;79.80;;;;;;5008657;28;20112;-53
2023/08/04 06:28:07;;;;;;;10.13;6.38;;;18.50;79.80;;;;;;5009382;28;20461;-54
2023/08/04 06:30:34;;;;;;;10.13;5.45;;;18.50;79.70;;;;;;5006130;28;20066;-53
2023/08/04 06:33:01;;;;;;;9.82;5.95;;;18.60;79.60;;;;;;5007922;28;20492;-52
2023/08/04 06:35:27;;;;;;;6.95;5.50;;;18.60;79.70;;;;;;5008205;28;20049;-55
2023/08/04 06:37:54;;;;;;;12.05;6.88;;;18.60;79.80;;;;;;5004069;28;20076;-56
2023/08/04 06:40:21;;;;;;;12.68;6.53;;;18.60;80.00;;;;;;5006834;28;20116;-53
2023/08/04 06:42:47;;;;;;;9.27;6.72;;;18.70;79.90;;;;;;5007194;28;20080;-54
2023/08/04 06:45:15;;;;;;;7.50;5.80;;;18.70;79.80;;;;;;5006653;28;20214;-55
2023/08/04 06:47:42;;;;;;;10.40;5.93;;;18.70;79.70;;;;;;5006216;28;20569;-51
2023/08/04 06:50:09;;;;;;;14.57;6.43;;;18.70;80.00;;;;;;5007509;28;20381;-56
2023/08/04 06:52:35;;;;;;;12.50;7.82;;;18.80;80.10;;;;;;5002542;28;20065;-57
2023/08/04 06:55:02;;;;;;;9.25;5.55;;;18.80;80.10;;;;;;5009695;28;20084;-54
2023/08/04 06:57:31;;;;;;;13.75;6.47;;;18.80;80.50;;;;;;5006835;28;20041;-52
2023/08/04 06:59:58;;;;;;;11.02;7.05;;;18.90;80.40;;;;;;5008974;28;20048;-53
2023/08/04 07:02:24;;;;;;;7.95;6.57;;;19.00;80.30;;;;;;5006191;28;20579;-51
2023/08/04 07:04:51;;;;;;;10.70;7.47;;;19.10;80.40;;;;;;5008804;28;20045;-53
2023/08/04 07:07:18;;;;;;;8.82;5.72;;;19.10;80.10;;;;;;5005533;28;20092;-51
2023/08/04 07:09:45;;;;;;;11.90;6.13;;;19.20;80.10;;;;;;5003315;28;20492;-53
2023/08/04 07:12:11;;;;;;;10.48;6.40;;;19.30;79.60;;;;;;5003910;28;20077;-56
2023/08/04 07:14:38;;;;;;;10.68;6.10;;;19.30;79.80;;;;;;5007954;28;20052;-53
2023/08/04 07:17:05;;;;;;;9.65;5.80;;;19.40;79.80;;;;;;4999624;28;20066;-55
2023/08/04 07:19:31;;;;;;;10.05;6.18;;;19.40;78.90;;;;;;5007894;28;20117;-50
2023/08/04 07:21:58;;;;;;;7.65;5.32;;;19.50;78.90;;;;;;5007071;28;20136;-56
2023/08/04 07:24:25;;;;;;;7.35;5.70;;;19.60;78.80;;;;;;5006504;28;20522;-54
2023/08/04 07:26:53;;;;;;;7.68;5.85;;;19.60;78.80;;;;;;5004711;28;20045;-53
2023/08/04 07:29:19;;;;;;;8.80;6.10;;;19.70;78.90;;;;;;5009429;28;20073;-51
2023/08/04 07:31:46;;;;;;;13.70;6.65;;;19.70;79.00;;;;;;5009859;28;20042;-55
2023/08/04 07:34:13;;;;;;;11.57;6.28;;;19.80;79.30;;;;;;5010765;28;20053;-53
2023/08/04 07:36:40;;;;;;;9.90;5.85;;;19.90;78.80;;;;;;5005375;28;20057;-51
2023/08/04 07:39:07;;;;;;;10.23;5.82;;;19.90;78.60;;;;;;5011640;28;20133;-57
2023/08/04 07:41:33;;;;;;;7.95;6.13;;;20.00;78.00;;;;;;5009351;28;20056;-54
2023/08/04 07:44:00;;;;;;;9.48;6.00;;;20.10;78.00;;;;;;5014877;28;20073;-53
2023/08/04 07:46:29;;;;;;;7.30;6.63;;;20.20;77.80;;;;;;5010137;28;20068;-55
2023/08/04 07:48:56;;;;;;;8.95;5.40;;;20.20;77.50;;;;;;5012592;28;20042;-54
2023/08/04 07:51:23;;;;;;;9.20;5.38;;;20.30;77.20;;;;;;5012279;28;20038;-52
2023/08/04 07:53:50;;;;;;;10.23;6.55;;;20.30;77.10;;;;;;5011674;28;20084;-54
2023/08/04 07:56:17;;;;;;;10.93;5.80;;;20.40;76.80;;;;;;5007188;28;20052;-52
2023/08/04 07:58:44;;;;;;;8.82;4.95;;;20.40;76.80;;;;;;5006347;28;20108;-52
2023/08/04 08:01:11;;;;;;;9.80;5.22;;;20.40;76.70;;;;;;5005461;28;20128;-53
2023/08/04 08:03:38;;;;;;;6.00;4.38;;;20.50;76.80;;;;;;5005432;28;20115;-53
2023/08/04 08:06:05;;;;;;;7.45;4.75;;;20.60;76.60;;;;;;5007791;28;20100;-54
2023/08/04 08:08:31;;;;;;;8.73;5.22;;;20.60;76.30;;;;;;5007208;28;20113;-51
2023/08/04 08:10:59;;;;;;;8.77;4.90;;;20.60;75.80;;;;;;5004168;28;20042;-53
2023/08/04 08:13:25;;;;;;;6.78;5.03;;;20.60;75.00;;;;;;5005243;28;20404;-55
2023/08/04 08:15:52;;;;;;;9.40;4.63;;;20.60;74.90;;;;;;5001252;28;20516;-56
2023/08/04 08:18:19;;;;;;;8.82;5.28;;;20.60;74.80;;;;;;5010376;28;20054;-57
2023/08/04 08:20:45;;;;;;;9.10;4.90;;;20.60;74.80;;;;;;5005078;28;20092;-55
2023/08/04 08:23:12;;;;;;;10.77;4.95;;;20.60;74.60;;;;;;5011879;28;20042;-53
2023/08/04 08:25:41;;;;;;;10.07;4.50;;;20.50;74.50;;;;;;5011453;28;20043;-57
2023/08/04 08:28:10;;;;;;;7.32;4.00;;;20.50;74.50;;;;;;5010714;28;20049;-51
2023/08/04 08:30:37;;;;;;;8.82;4.60;;;20.50;74.60;;;;;;5009574;28;20124;-54
2023/08/04 08:33:03;;;;;;;6.38;3.50;;;20.40;74.60;;;;;;5010715;28;20134;-55
2023/08/04 08:35:30;;;;;;;4.97;3.25;;;20.40;74.40;;;;;;5011282;28;20060;-52
2023/08/04 08:37:57;;;;;;;7.38;3.97;;;20.40;74.40;;;;;;5010483;28;20038;-52
2023/08/04 08:40:25;;;;;;;4.97;4.07;;;20.40;74.10;;;;;;5008689;28;20042;-55
2023/08/04 08:42:56;;;;;;;6.45;3.38;;;20.40;74.20;;;;;;5011865;28;20046;-54
2023/08/04 08:45:28;;;;;;;4.63;3.10;;;20.40;74.30;;;;;;5009699;28;20061;-54
2023/08/04 08:47:56;;;;;;;4.50;3.08;;;20.50;74.70;;;;;;5010382;28;20046;-51
2023/08/04 08:50:25;;;;;;;3.45;2.47;;;20.60;74.20;;;;;;5009213;28;20511;-54
2023/08/04 08:53:22;;;;;;;2.33;2.13;;;20.60;73.20;;;;;;5007580;28;20069;-52
2023/08/04 08:55:50;;;;;;;2.17;1.90;;;20.70;71.70;;;;;;5007404;28;20062;-53
2023/08/04 08:58:18;;;;;;;2.10;1.80;;;20.80;71.40;;;;;;5008154;28;20050;-57
2023/08/04 09:00:45;;;;;;;3.28;1.75;;;20.90;71.20;;;;;;5008832;28;20104;-54
2023/08/04 09:03:12;;;;;;;2.45;1.75;;;21.00;70.50;;;;;;5007743;28;20070;-53
2023/08/04 09:05:39;;;;;;;2.22;1.95;;;21.10;70.70;;;;;;5007312;28;20050;-51
2023/08/04 09:08:06;;;;;;;2.22;1.73;;;21.20;70.70;;;;;;5008281;28;20452;-55
2023/08/04 09:10:36;;;;;;;1.45;1.35;;;21.40;69.60;;;;;;5009296;28;20120;-55
2023/08/04 09:13:07;;;;;;;2.88;1.20;;;21.50;69.10;;;;;;5005839;28;20065;-53
2023/08/04 09:15:45;;;;;;;1.98;1.45;;;21.60;66.80;;;;;;5012116;28;20562;-56
2023/08/04 09:18:24;;;;;;;2.72;1.60;;;21.80;68.50;;;;;;5006152;28;20522;-53
2023/08/04 09:21:12;;;;;;;2.15;1.45;;;21.90;66.00;;;;;;5007464;28;20460;-54
2023/08/04 09:23:47;;;;;;;3.53;1.65;;;22.10;65.80;;;;;;5004684;28;20057;-59
2023/08/04 09:26:14;;;;;;;2.60;2.40;;;22.20;65.30;;;;;;5005640;28;20065;-60
2023/08/04 09:28:41;;;;;;;3.40;2.47;;;22.40;66.40;;;;;;5003178;28;20076;-55
2023/08/04 09:31:10;;;;;;;3.03;2.03;;;22.50;66.70;;;;;;5004219;28;20133;-52
2023/08/04 09:33:41;;;;;;;3.30;2.20;;;22.50;66.90;;;;;;5003976;28;20119;-56
2023/08/04 09:36:15;;;;;;;3.35;2.08;;;22.60;66.30;;;;;;5003455;28;20033;-60
2023/08/04 09:38:43;;;;;;;1.98;1.80;;;22.70;65.70;;;;;;5008672;28;20546;-53
2023/08/04 09:41:11;;;;;;;3.70;1.52;;;22.70;65.10;;;;;;5007147;28;20594;-54
2023/08/04 09:43:49;;;;;;;5.97;2.20;;;22.80;64.20;;;;;;5006190;28;20492;-52
2023/08/04 09:46:16;;;;;;;6.95;3.35;;;22.80;63.00;;;;;;5006620;28;20544;-54
2023/08/04 09:48:44;;;;;;;3.78;2.00;;;22.90;64.00;;;;;;4993016;28;20069;-53
2023/08/04 09:51:13;;;;;;;2.00;1.60;;;22.90;64.30;;;;;;5007401;28;20457;-54
2023/08/04 09:53:47;;;;;;;3.42;2.10;;;23.00;64.00;;;;;;5009607;28;20495;-56
2023/08/04 09:56:18;;;;;;;4.95;2.10;;;23.00;64.00;;;;;;5011279;28;20053;-56
2023/08/04 09:58:47;;;;;;;3.08;1.90;;;23.10;63.20;;;;;;5007421;28;20154;-55
2023/08/04 10:01:15;;;;;;;3.15;2.08;;;23.10;63.00;;;;;;5008152;28;20475;-56
2023/08/04 10:03:45;;;;;;;2.08;1.88;;;23.20;62.70;;;;;;5008596;28;20034;-55
2023/08/04 10:06:13;;;;;;;4.03;2.05;;;23.20;63.10;;;;;;5008065;28;20050;-57
2023/08/04 10:08:40;;;;;;;3.45;2.30;;;23.30;63.20;;;;;;5002646;28;20135;-58
2023/08/04 10:11:08;;;;;;;2.63;1.90;;;23.40;63.00;;;;;;5008714;28;20042;-57
2023/08/04 10:13:37;;;;;;;2.33;1.83;;;23.40;62.90;;;;;;5008777;28;20046;-56
2023/08/04 10:16:08;;;;;;;4.80;2.40;;;23.40;62.00;;;;;;5007860;28;20042;-52
2023/08/04 10:18:55;;;;;;;2.90;1.70;;;23.50;61.90;;;;;;5004533;28;20049;-53
2023/08/04 10:21:37;;;;;;;2.20;2.00;;;23.60;60.90;;;;;;5001302;28;20157;-57
2023/08/04 10:24:08;;;;;;;2.88;1.70;;;23.70;60.90;;;;;;5003059;28;20125;-55
2023/08/04 10:26:45;;;;;;;4.45;1.98;;;23.70;61.00;;;;;;5007318;28;20100;-55
2023/08/04 10:29:12;;;;;;;3.03;1.90;;;23.80;60.40;;;;;;5002673;28;20046;-50
2023/08/04 10:31:55;;;;;;;3.45;2.08;;;23.80;61.50;;;;;;5007959;28;20050;-50
2023/08/04 10:34:31;;;;;;;4.35;2.15;;;23.90;60.60;;;;;;5007463;28;20129;-48
2023/08/04 10:37:06;;;;;;;2.47;2.13;;;24.00;60.10;;;;;;5008255;28;20393;-51
2023/08/04 10:39:41;;;;;;;2.78;2.03;;;24.10;60.40;;;;;;5009584;28;20502;-48
2023/08/04 10:42:22;;;;;;;2.72;1.70;;;24.20;59.80;;;;;;5009918;28;20045;-50
2023/08/04 10:45:03;;;;;;;3.42;2.10;;;24.30;61.00;;;;;;4983381;28;20097;-48
2023/08/04 10:47:46;;;;;;;2.92;1.83;;;24.40;59.70;;;;;;5005218;28;20041;-49
2023/08/04 10:50:33;;;;;;;2.60;1.35;;;24.50;60.30;;;;;;5005555;28;20042;-48
2023/08/04 10:53:00;;;;;;;2.60;1.30;;;24.60;60.00;;;;;;5006971;28;20103;-47
2023/08/04 10:55:27;;;;;;;1.70;1.30;;;24.70;58.70;;;;;;5005060;28;20613;-47
2023/08/04 10:57:53;;;;;;;1.63;1.23;;;24.80;58.40;;;;;;5008867;28;20037;-49
2023/08/04 11:00:20;;;;;;;1.85;1.00;;;24.80;57.90;;;;;;5005209;28;20050;-47
2023/08/04 11:02:47;;;;;;;2.80;1.70;;;24.90;57.80;;;;;;5005273;28;20049;-47
2023/08/04 11:05:14;;;;;;;1.95;1.33;;;25.00;57.40;;;;;;5009161;28;20122;-48
2023/08/04 11:07:46;;;;;;;1.77;1.45;;;25.10;56.40;;;;;;5003602;28;20145;-49
2023/08/04 11:10:13;;;;;;;3.05;1.60;;;25.20;55.70;;;;;;5015591;23;20033;-51
2023/08/04 11:12:40;;;;;;;2.53;1.90;;;25.20;57.00;;;;;;4981871;28;20042;-52
2023/08/04 11:15:10;;;;;;;2.05;1.60;;;25.30;56.20;;;;;;4987909;28;20109;-52
2023/08/04 11:17:41;;;;;;;1.80;1.67;;;25.40;56.20;;;;;;4982856;28;20497;-54
2023/08/04 11:20:12;;;;;;;2.97;2.00;;;25.50;56.50;;;;;;4987458;28;20039;-54
2023/08/04 11:22:46;;;;;;;2.03;1.92;;;25.50;56.30;;;;;;4982651;28;20277;-54
2023/08/04 11:25:13;;;;;;;2.25;1.48;;;25.60;55.50;;;;;;4996759;28;20046;-53
2023/08/04 11:27:41;;;;;;;4.15;1.85;;;25.50;56.00;;;;;;4979195;28;20149;-52
2023/08/04 11:30:11;;;;;;;3.88;2.05;;;25.50;55.90;;;;;;4988740;28;20042;-54
2023/08/04 11:32:37;;;;;;;2.55;2.22;;;25.50;56.10;;;;;;4981552;28;20501;-53
2023/08/04 11:35:05;;;;;;;2.42;2.25;;;25.40;56.60;;;;;;4982968;28;20657;-52
2023/08/04 11:37:31;;;;;;;3.58;2.17;;;25.30;57.10;;;;;;4985024;28;20050;-54
2023/08/04 11:39:58;;;;;;;2.45;2.28;;;25.20;57.10;;;;;;4986633;28;20121;-54
2023/08/04 11:42:25;;;;;;;2.65;2.20;;;25.10;56.80;;;;;;4988123;28;20125;-54
2023/08/04 11:44:52;;;;;;;2.40;2.20;;;25.10;56.50;;;;;;5004358;28;20126;-53
2023/08/04 11:47:19;;;;;;;2.08;1.90;;;25.10;57.10;;;;;;4985199;28;20034;-54
2023/08/04 11:49:46;;;;;;;2.22;1.58;;;25.10;57.30;;;;;;4988339;28;20117;-51
2023/08/04 11:52:14;;;;;;;1.42;1.33;;;25.10;57.00;;;;;;4987856;28;20109;-53
2023/08/04 11:54:56;;;;;;;1.95;1.58;;;25.20;56.20;;;;;;4987768;28;20117;-53
2023/08/04 11:57:23;;;;;;;2.72;1.65;;;25.30;54.70;;;;;;4981875;28;20476;-52
2023/08/04 11:59:51;;;;;;;4.35;1.63;;;25.40;55.80;;;;;;4987502;28;20038;-52
2023/08/04 12:02:18;;;;;;;2.30;1.77;;;25.60;55.40;;;;;;4984911;28;20053;-51
2023/08/04 12:04:45;;;;;;;2.13;1.30;;;25.60;54.70;;;;;;4986888;28;20580;-53
2023/08/04 12:07:15;;;;;;;1.95;1.50;;;25.70;55.00;;;;;;4987534;28;20046;-53
2023/08/04 12:09:46;;;;;;;2.85;1.85;;;25.70;54.10;;;;;;5002004;28;20241;-54
2023/08/04 12:12:12;;;;;;;2.13;1.73;;;25.80;54.50;;;;;;4987788;28;20046;-54
2023/08/04 12:14:39;;;;;;;2.65;1.40;;;25.80;54.70;;;;;;4987757;28;20088;-53
2023/08/04 12:17:39;;;;;;;5.30;1.70;;;25.90;55.00;;;;;;4986931;28;20074;-53
2023/08/04 12:20:12;;;;;;;2.72;1.45;;;25.90;54.10;;;;;;4991307;28;20092;-53
2023/08/04 12:22:41;;;;;;;4.15;1.70;;;25.90;54.50;;;;;;4989212;28;20062;-52
2023/08/04 12:25:09;;;;;;;2.95;1.33;;;25.90;54.50;;;;;;4990475;28;20061;-54
2023/08/04 12:27:35;;;;;;;2.67;1.75;;;25.80;53.20;;;;;;4990443;28;20039;-53
2023/08/04 12:30:02;;;;;;;2.53;1.60;;;25.80;53.70;;;;;;4991103;28;20508;-54
2023/08/04 12:32:29;;;;;;;2.05;1.60;;;25.70;53.50;;;;;;4989311;28;20066;-53
2023/08/04 12:34:57;;;;;;;1.63;1.50;;;25.70;54.20;;;;;;4989440;28;20042;-52
2023/08/04 12:37:25;;;;;;;1.80;1.70;;;25.60;54.50;;;;;;4987416;28;20060;-53
2023/08/04 12:39:52;;;;;;;1.40;1.15;;;25.60;54.10;;;;;;4990822;28;20499;-54
2023/08/04 12:42:23;;;;;;;2.42;1.80;;;25.70;54.70;;;;;;4987449;28;20046;-52
2023/08/04 12:44:49;;;;;;;2.50;1.92;;;25.80;54.00;;;;;;4986284;28;20495;-54
2023/08/04 12:47:16;;;;;;;1.92;1.38;;;25.90;54.60;;;;;;4984405;28;20046;-52
2023/08/04 12:49:43;;;;;;;1.85;1.60;;;26.10;54.30;;;;;;4986185;28;20057;-53
2023/08/04 12:52:10;;;;;;;2.83;1.83;;;26.20;54.80;;;;;;4988806;28;20046;-54
2023/08/04 12:54:37;;;;;;;2.22;1.30;;;26.40;54.10;;;;;;4990418;28;20050;-53